Terminal Aerodrome Forecast
Issued by NWS Mobile, AL

Home | Current Version | Previous Version | Text Only | Print | Product List | Glossary On
Versions: 1 2 3 4 5 6 7 8 9 10 11 12 13 14 15 16 17 18 19 20 21 22 23 24 25 26 27 28 29 30 31 32 33 34 35 36 37
000
FTUS44 KMOB 271926 AAA
TAFMOB
TAF AMD
KMOB 271926Z 2719/2818 15010KT P6SM VCSH SCT026 BKN035
      TEMPO 2720/2724 5SM TSRA BKN030CB OVC070
     FM280100 05003KT P6SM VCSH SCT050 BKN100
      TEMPO 2809/2813 5SM BR BKN025
     FM281400 11005KT P6SM VCSH SCT030 BKN120=

USA.gov is the U.S. government's official web portal to all federal, state and local government web resources and services.